Time;durP1;ratioP1;P1;durP2;ratioP2;P2;SDS_P1;SDS_P2;PMS_P1;PMS_P2;Temp;Humidity;BMP_temperature;BMP_pressure;BME280_temperature;BME280_humidity;BME280_pressure;Samples;Min_cycle;Max_cycle;Signal;HPM_P1;HPM_P2
2023/02/07 00:01:09;;;;;;;6.67;5.47;;;4.10;56.00;;;;;;5039654;28;20477;-59
2023/02/07 00:03:35;;;;;;;8.77;6.20;;;4.20;56.40;;;;;;5042737;28;20443;-59
2023/02/07 00:06:32;;;;;;;8.20;5.47;;;4.20;56.10;;;;;;5033814;28;20538;-59
2023/02/07 00:08:59;;;;;;;12.20;6.70;;;4.10;56.10;;;;;;5038204;28;20819;-59
2023/02/07 00:11:25;;;;;;;7.33;6.00;;;4.20;55.90;;;;;;5035935;28;20443;-59
2023/02/07 00:13:54;;;;;;;9.40;6.53;;;4.00;55.80;;;;;;5048296;28;20480;-59
2023/02/07 00:16:20;;;;;;;10.00;5.83;;;4.00;56.30;;;;;;5046761;28;20224;-59
2023/02/07 00:18:47;;;;;;;8.53;6.10;;;4.00;56.30;;;;;;5049406;28;20872;-59
2023/02/07 00:21:15;;;;;;;7.03;5.87;;;4.10;56.10;;;;;;5048701;28;20452;-59
2023/02/07 00:23:41;;;;;;;5.70;4.90;;;4.00;55.90;;;;;;5049414;28;20427;-59
2023/02/07 00:26:09;;;;;;;7.57;6.30;;;3.80;56.00;;;;;;5038533;28;20792;-59
2023/02/07 00:28:34;;;;;;;10.77;6.63;;;3.90;56.20;;;;;;5039536;28;20450;-59
2023/02/07 00:31:10;;;;;;;8.57;6.47;;;4.10;55.80;;;;;;5044770;28;20493;-59
2023/02/07 00:33:37;;;;;;;10.47;6.50;;;4.20;55.40;;;;;;5040029;28;20529;-58
2023/02/07 00:36:05;;;;;;;10.60;6.03;;;4.10;55.40;;;;;;5048404;28;20442;-59
2023/02/07 00:38:32;;;;;;;9.40;6.83;;;4.00;55.60;;;;;;5046102;28;20531;-59
2023/02/07 00:41:00;;;;;;;9.97;6.97;;;4.20;55.50;;;;;;5054502;28;20508;-59
2023/02/07 00:43:26;;;;;;;10.00;6.20;;;4.40;55.20;;;;;;5052169;28;20438;-59
2023/02/07 00:45:52;;;;;;;10.80;7.00;;;4.40;54.70;;;;;;5046386;28;20521;-59
2023/02/07 00:48:17;;;;;;;9.20;6.50;;;4.30;54.80;;;;;;5047796;28;20966;-59
2023/02/07 00:50:43;;;;;;;10.70;7.40;;;4.40;54.90;;;;;;5047484;28;20574;-59
2023/02/07 00:53:09;;;;;;;8.93;7.13;;;4.20;54.90;;;;;;5045972;28;20200;-59
2023/02/07 00:55:34;;;;;;;9.10;6.70;;;4.10;55.40;;;;;;5049770;28;20200;-59
2023/02/07 00:58:00;;;;;;;10.40;7.17;;;4.20;55.50;;;;;;5046443;28;20220;-60
2023/02/07 01:00:26;;;;;;;10.07;7.43;;;4.20;55.10;;;;;;5045479;28;20215;-61
2023/02/07 01:02:51;;;;;;;11.20;8.23;;;4.00;55.10;;;;;;5053163;28;20221;-59
2023/02/07 01:05:17;;;;;;;9.10;6.77;;;3.90;55.70;;;;;;5052440;28;20195;-59
2023/02/07 01:07:42;;;;;;;11.13;8.60;;;3.70;56.10;;;;;;5045472;28;20663;-59
2023/02/07 01:10:09;;;;;;;8.97;7.47;;;3.90;56.00;;;;;;5045493;28;20838;-59
2023/02/07 01:12:35;;;;;;;11.77;7.50;;;4.10;55.80;;;;;;5043973;28;20197;-59
2023/02/07 01:15:06;;;;;;;9.90;7.63;;;4.00;55.70;;;;;;5044018;28;20447;-59
2023/02/07 01:17:36;;;;;;;10.13;7.53;;;3.90;55.80;;;;;;5044518;28;20513;-59
2023/02/07 01:20:04;;;;;;;9.37;7.80;;;3.50;56.20;;;;;;5043439;28;20530;-59
2023/02/07 01:22:29;;;;;;;12.80;9.80;;;3.60;57.00;;;;;;5037481;28;20534;-59
2023/02/07 01:24:55;;;;;;;13.33;9.30;;;3.80;56.70;;;;;;5051192;28;20529;-59
2023/02/07 01:27:22;;;;;;;12.73;8.93;;;4.00;56.20;;;;;;5049390;28;20360;-59
2023/02/07 01:29:48;;;;;;;12.43;9.07;;;4.00;56.00;;;;;;5043405;28;20189;-59
2023/02/07 01:32:14;;;;;;;10.13;8.23;;;4.00;56.00;;;;;;5046423;28;20439;-59
2023/02/07 01:34:40;;;;;;;13.97;8.97;;;3.80;55.80;;;;;;5033129;28;20498;-59
2023/02/07 01:37:05;;;;;;;15.90;9.57;;;3.60;56.50;;;;;;5041794;28;20221;-59
2023/02/07 01:39:31;;;;;;;11.97;8.87;;;3.90;56.30;;;;;;5037600;28;20592;-59
2023/02/07 01:41:57;;;;;;;15.10;10.07;;;3.70;55.90;;;;;;5042935;28;20208;-60
2023/02/07 01:44:22;;;;;;;11.00;7.90;;;3.50;56.10;;;;;;5050298;28;20949;-60
2023/02/07 01:46:50;;;;;;;13.97;9.00;;;3.50;56.30;;;;;;5050388;28;20216;-59
2023/02/07 01:49:20;;;;;;;12.37;9.70;;;3.50;56.30;;;;;;5044528;28;20184;-59
2023/02/07 01:51:52;;;;;;;11.43;9.20;;;3.60;56.40;;;;;;5035538;28;21277;-59
2023/02/07 01:54:20;;;;;;;9.83;8.40;;;3.60;56.60;;;;;;5048555;28;20477;-59
2023/02/07 01:56:53;;;;;;;16.20;9.30;;;3.60;56.40;;;;;;5050357;28;20466;-59
2023/02/07 01:59:19;;;;;;;16.27;9.43;;;3.50;56.30;;;;;;5045748;28;20427;-59
2023/02/07 02:01:45;;;;;;;16.30;9.50;;;3.50;56.40;;;;;;5051833;28;20577;-59
2023/02/07 02:04:11;;;;;;;14.40;9.07;;;3.30;56.50;;;;;;5051730;28;21001;-59
2023/02/07 02:06:38;;;;;;;12.10;9.30;;;3.40;56.70;;;;;;5040841;28;21046;-59
2023/02/07 02:09:10;;;;;;;12.37;9.57;;;3.30;56.60;;;;;;5047724;28;20184;-59
2023/02/07 02:11:35;;;;;;;13.17;9.40;;;3.00;56.50;;;;;;5051882;28;20515;-59
2023/02/07 02:14:28;;;;;;;13.13;9.67;;;2.60;57.10;;;;;;5043130;28;20529;-59
2023/02/07 02:17:13;;;;;;;11.30;9.27;;;2.60;57.60;;;;;;5036580;28;20224;-59
2023/02/07 02:19:48;;;;;;;12.03;9.33;;;2.20;58.00;;;;;;5041707;28;20458;-59
2023/02/07 02:22:51;;;;;;;12.77;9.83;;;2.00;58.50;;;;;;5048421;28;20450;-59
2023/02/07 02:25:25;;;;;;;11.60;9.30;;;1.90;59.10;;;;;;5050284;28;20439;-59
2023/02/07 02:28:12;;;;;;;17.83;10.20;;;2.00;59.10;;;;;;5050376;28;20505;-59
2023/02/07 02:31:00;;;;;;;17.40;10.10;;;2.00;59.30;;;;;;5040132;28;20446;-59
2023/02/07 02:34:01;;;;;;;13.37;10.10;;;2.10;58.60;;;;;;5050637;28;20481;-59
2023/02/07 02:36:42;;;;;;;14.23;9.57;;;1.90;58.90;;;;;;5051573;28;20462;-59
2023/02/07 02:39:13;;;;;;;13.90;9.90;;;1.80;59.70;;;;;;5044893;28;20546;-59
2023/02/07 02:41:58;;;;;;;18.53;10.80;;;1.80;59.90;;;;;;5031417;28;20431;-59
2023/02/07 02:44:37;;;;;;;14.57;9.60;;;1.70;59.80;;;;;;5041295;28;20426;-59
2023/02/07 02:47:03;;;;;;;14.13;10.23;;;1.80;60.80;;;;;;5042803;28;20455;-59
2023/02/07 02:49:32;;;;;;;13.23;10.53;;;1.70;60.30;;;;;;5040979;28;20461;-59
2023/02/07 02:51:58;;;;;;;15.50;10.27;;;1.70;60.40;;;;;;5042661;28;20452;-59
2023/02/07 02:54:31;;;;;;;13.87;11.30;;;1.80;60.30;;;;;;5043108;28;21784;-59
2023/02/07 02:57:27;;;;;;;16.73;11.20;;;1.90;60.00;;;;;;5027177;28;20906;-59
2023/02/07 03:00:02;;;;;;;12.63;10.13;;;1.90;59.90;;;;;;5039939;28;20470;-59
2023/02/07 03:02:38;;;;;;;14.50;10.20;;;2.00;60.60;;;;;;5050634;28;20874;-59
2023/02/07 03:05:18;;;;;;;17.10;10.53;;;2.00;59.50;;;;;;5047510;28;20537;-59
2023/02/07 03:07:56;;;;;;;13.63;11.00;;;2.20;59.30;;;;;;5030305;28;20455;-59
2023/02/07 03:10:46;;;;;;;13.97;10.37;;;2.10;58.60;;;;;;5045971;28;20449;-59
2023/02/07 03:13:25;;;;;;;12.80;10.17;;;2.10;58.90;;;;;;5040746;28;20483;-59
2023/02/07 03:16:17;;;;;;;15.63;10.50;;;2.10;59.00;;;;;;5036979;28;20455;-59
2023/02/07 03:19:06;;;;;;;14.60;10.00;;;2.00;59.00;;;;;;5040188;28;20463;-59
2023/02/07 03:21:41;;;;;;;13.90;10.30;;;2.00;58.70;;;;;;5035710;28;20457;-59
2023/02/07 03:24:17;;;;;;;19.00;10.90;;;2.00;58.80;;;;;;5043696;28;20442;-59
2023/02/07 03:26:45;;;;;;;13.10;11.03;;;2.00;59.00;;;;;;5043241;28;20465;-59
2023/02/07 03:29:14;;;;;;;14.00;11.10;;;2.20;58.70;;;;;;5040738;28;20450;-59
2023/02/07 03:31:42;;;;;;;12.80;9.60;;;2.20;58.30;;;;;;5049426;28;20435;-59
2023/02/07 03:34:13;;;;;;;12.67;10.10;;;2.20;58.20;;;;;;5046087;28;20415;-59
2023/02/07 03:36:59;;;;;;;11.67;9.90;;;2.10;58.20;;;;;;5040389;28;20475;-59
2023/02/07 03:39:25;;;;;;;13.17;9.43;;;2.10;58.50;;;;;;5036313;28;20442;-59
2023/02/07 03:41:58;;;;;;;14.20;10.27;;;2.20;58.30;;;;;;5044649;28;20438;-59
2023/02/07 03:44:27;;;;;;;16.57;11.23;;;2.20;58.00;;;;;;5050087;28;20561;-59
2023/02/07 03:46:53;;;;;;;12.63;9.10;;;2.40;57.90;;;;;;5052971;28;20427;-59
2023/02/07 03:49:19;;;;;;;13.00;10.80;;;2.80;57.60;;;;;;5047905;28;20435;-59
2023/02/07 03:51:45;;;;;;;13.87;10.57;;;3.10;56.50;;;;;;5045507;28;20510;-59
2023/02/07 03:54:11;;;;;;;14.63;11.77;;;3.10;55.40;;;;;;5045016;28;20435;-59
2023/02/07 03:56:37;;;;;;;15.67;11.40;;;3.10;55.70;;;;;;5047163;28;20527;-59
2023/02/07 03:59:03;;;;;;;14.77;12.33;;;3.10;55.30;;;;;;5036015;28;20207;-59
2023/02/07 04:01:29;;;;;;;18.43;11.00;;;2.70;55.80;;;;;;5047690;28;20560;-59
2023/02/07 04:03:55;;;;;;;16.40;11.33;;;2.90;56.20;;;;;;5053348;28;20479;-59
2023/02/07 04:06:20;;;;;;;14.27;10.13;;;3.10;55.70;;;;;;5037349;28;21004;-59
2023/02/07 04:08:46;;;;;;;16.07;10.70;;;3.10;55.60;;;;;;5034485;28;20196;-59
2023/02/07 04:11:12;;;;;;;15.97;10.70;;;3.20;54.90;;;;;;5041040;28;20640;-59
2023/02/07 04:13:37;;;;;;;15.60;10.40;;;2.80;55.20;;;;;;5048977;28;20280;-59
2023/02/07 04:16:07;;;;;;;16.10;10.00;;;2.80;56.00;;;;;;5047613;28;20888;-59
2023/02/07 04:18:33;;;;;;;14.60;11.23;;;2.70;55.60;;;;;;5046061;28;20205;-59
2023/02/07 04:21:06;;;;;;;15.00;10.10;;;2.60;56.00;;;;;;5047074;28;20438;-59
2023/02/07 04:23:33;;;;;;;14.07;9.90;;;2.40;56.20;;;;;;5044027;28;20437;-59
2023/02/07 04:25:59;;;;;;;13.13;10.73;;;2.70;56.10;;;;;;5042655;28;20439;-59
2023/02/07 04:28:24;;;;;;;12.87;9.77;;;2.90;55.80;;;;;;5050545;28;20450;-59
2023/02/07 04:30:51;;;;;;;12.43;10.50;;;3.20;55.20;;;;;;5046861;28;20450;-59
2023/02/07 04:33:16;;;;;;;15.77;10.30;;;3.30;54.40;;;;;;5045238;28;20335;-59
2023/02/07 04:35:42;;;;;;;14.03;10.10;;;3.30;54.30;;;;;;5036979;28;20527;-59
2023/02/07 04:38:08;;;;;;;14.00;9.70;;;3.50;54.00;;;;;;5042829;28;20232;-59
2023/02/07 04:40:33;;;;;;;19.57;13.37;;;3.70;53.50;;;;;;5044743;28;20188;-59
2023/02/07 04:42:59;;;;;;;17.70;12.67;;;3.90;53.00;;;;;;5049506;28;20242;-59
2023/02/07 04:45:24;;;;;;;12.70;10.30;;;4.00;52.60;;;;;;5052067;28;20569;-59
2023/02/07 04:47:50;;;;;;;14.83;10.97;;;4.00;52.20;;;;;;5039461;28;20212;-59
2023/02/07 04:50:16;;;;;;;15.43;11.47;;;4.00;52.00;;;;;;5044146;28;20197;-59
2023/02/07 04:52:42;;;;;;;14.40;11.33;;;4.10;51.80;;;;;;5041425;28;20196;-59
2023/02/07 04:55:08;;;;;;;12.57;10.00;;;4.10;51.70;;;;;;5037039;28;20436;-59
2023/02/07 04:57:34;;;;;;;14.90;10.93;;;4.20;51.60;;;;;;5039077;28;20298;-59
2023/02/07 04:59:59;;;;;;;15.67;10.20;;;4.30;51.60;;;;;;5045642;28;20934;-59
2023/02/07 05:02:25;;;;;;;16.00;10.77;;;4.20;51.50;;;;;;5037704;28;20232;-59
2023/02/07 05:04:50;;;;;;;15.30;10.87;;;4.20;51.40;;;;;;5046272;28;20645;-59
2023/02/07 05:07:16;;;;;;;11.43;9.90;;;4.20;51.20;;;;;;5039915;28;20193;-59
2023/02/07 05:09:42;;;;;;;16.13;11.10;;;4.20;51.00;;;;;;5046302;28;20213;-59
2023/02/07 05:12:08;;;;;;;15.07;10.57;;;4.30;51.00;;;;;;5041893;28;20812;-59
2023/02/07 05:14:33;;;;;;;12.63;10.70;;;4.30;50.90;;;;;;5043515;28;20205;-59
2023/02/07 05:16:59;;;;;;;11.70;10.40;;;4.30;50.80;;;;;;5045456;28;20954;-59
2023/02/07 05:19:25;;;;;;;14.50;10.20;;;4.30;50.70;;;;;;5047968;28;20209;-59
2023/02/07 05:21:50;;;;;;;14.27;11.07;;;4.30;50.60;;;;;;5049559;28;20331;-59
2023/02/07 05:24:16;;;;;;;13.70;9.83;;;4.20;50.30;;;;;;5044120;28;20292;-59
2023/02/07 05:26:41;;;;;;;14.20;10.50;;;4.20;50.40;;;;;;5036415;28;20228;-59
2023/02/07 05:29:07;;;;;;;12.77;9.87;;;4.20;50.40;;;;;;5044357;28;20196;-59
2023/02/07 05:34:17;;;;;;;13.03;9.43;;;4.20;50.30;;;;;;5050714;28;20725;-59
2023/02/07 05:36:42;;;;;;;10.60;8.97;;;4.20;50.30;;;;;;5040250;28;20471;-59
2023/02/07 05:39:08;;;;;;;12.37;9.00;;;4.10;50.20;;;;;;5033355;28;20220;-59
2023/02/07 05:41:33;;;;;;;12.80;9.00;;;4.10;50.20;;;;;;5050333;28;20200;-59
2023/02/07 05:43:59;;;;;;;12.00;10.07;;;4.20;50.10;;;;;;5043801;28;20201;-59
2023/02/07 05:46:25;;;;;;;14.50;9.67;;;4.20;50.00;;;;;;5048733;28;20196;-59
2023/02/07 05:48:50;;;;;;;22.83;10.13;;;4.20;49.90;;;;;;5048530;28;20563;-59
2023/02/07 05:51:16;;;;;;;15.60;9.87;;;4.10;49.70;;;;;;5049105;28;20192;-59
2023/02/07 05:53:41;;;;;;;12.50;10.13;;;4.10;50.00;;;;;;5049790;28;20196;-59
2023/02/07 05:56:07;;;;;;;15.33;11.00;;;4.10;50.10;;;;;;5048052;28;20279;-59
2023/02/07 05:58:33;;;;;;;14.13;10.93;;;4.10;50.30;;;;;;5045846;28;20675;-59
2023/02/07 06:00:58;;;;;;;15.93;10.60;;;4.10;50.50;;;;;;5044872;28;20327;-60
2023/02/07 06:03:24;;;;;;;15.87;10.83;;;4.10;50.70;;;;;;5042688;28;20193;-59
2023/02/07 06:05:49;;;;;;;19.07;11.30;;;4.20;50.80;;;;;;5033968;28;20197;-59
2023/02/07 06:08:15;;;;;;;14.60;10.37;;;4.20;50.80;;;;;;5035511;28;20201;-59
2023/02/07 06:10:40;;;;;;;19.03;10.50;;;4.10;50.60;;;;;;5041740;28;20193;-60
2023/02/07 06:13:06;;;;;;;18.03;11.60;;;4.10;50.60;;;;;;5034967;28;20185;-59
2023/02/07 06:15:32;;;;;;;19.07;12.30;;;4.10;50.50;;;;;;5042691;28;20193;-59
2023/02/07 06:17:57;;;;;;;15.00;11.57;;;4.10;50.50;;;;;;5038299;28;20221;-59
2023/02/07 06:20:23;;;;;;;14.80;10.87;;;4.00;50.50;;;;;;5040047;28;20201;-59
2023/02/07 06:22:48;;;;;;;16.50;11.17;;;3.70;50.70;;;;;;5043440;28;20553;-59
2023/02/07 06:25:14;;;;;;;18.77;11.43;;;3.80;51.00;;;;;;5035991;28;20200;-59
2023/02/07 06:27:40;;;;;;;17.23;11.53;;;3.90;51.00;;;;;;5039429;28;20256;-59
2023/02/07 06:30:08;;;;;;;12.00;7.60;;;4.00;50.70;;;;;;5033946;28;20185;-60
2023/02/07 06:32:33;;;;;;;15.70;12.10;;;4.10;53.40;;;;;;5039052;28;20444;-60
2023/02/07 06:34:59;;;;;;;16.93;12.13;;;4.50;57.00;;;;;;5039618;28;20522;-59
2023/02/07 06:37:24;;;;;;;17.07;11.70;;;4.90;57.30;;;;;;5038527;28;20225;-60
2023/02/07 06:39:50;;;;;;;14.73;11.03;;;5.30;56.40;;;;;;5039462;28;20224;-59
2023/02/07 06:42:15;;;;;;;13.47;10.70;;;5.60;54.60;;;;;;5038178;28;20267;-61
2023/02/07 06:44:41;;;;;;;12.63;10.17;;;5.80;52.70;;;;;;5038613;28;20197;-60
2023/02/07 06:47:07;;;;;;;15.30;11.43;;;5.90;52.00;;;;;;5043833;28;20205;-60
2023/02/07 06:49:32;;;;;;;15.00;10.73;;;6.10;52.60;;;;;;5044505;28;20195;-60
2023/02/07 06:51:58;;;;;;;15.20;11.33;;;6.30;51.80;;;;;;5049628;28;20196;-60
2023/02/07 06:54:23;;;;;;;12.93;9.40;;;6.50;51.20;;;;;;5048559;28;20648;-59
2023/02/07 06:56:49;;;;;;;16.77;10.57;;;6.70;50.20;;;;;;5047981;28;20305;-60
2023/02/07 06:59:15;;;;;;;15.77;11.13;;;6.80;48.90;;;;;;5038281;28;20201;-60
2023/02/07 07:01:40;;;;;;;13.10;10.67;;;6.90;47.70;;;;;;5044179;28;20233;-59
2023/02/07 07:04:06;;;;;;;14.63;10.73;;;7.00;47.40;;;;;;5048638;28;20219;-60
2023/02/07 07:06:32;;;;;;;14.27;10.30;;;7.20;46.90;;;;;;5049085;28;20192;-60
2023/02/07 07:08:58;;;;;;;11.73;9.53;;;7.40;45.90;;;;;;5046957;28;20200;-60
2023/02/07 07:11:24;;;;;;;16.53;10.20;;;7.60;45.30;;;;;;5043759;28;20522;-60
2023/02/07 07:13:49;;;;;;;13.40;9.33;;;7.80;44.10;;;;;;5036915;28;20188;-60
2023/02/07 07:16:15;;;;;;;15.47;10.40;;;7.80;43.30;;;;;;5036276;28;20672;-60
2023/02/07 07:18:40;;;;;;;11.87;10.37;;;8.00;42.70;;;;;;5042983;28;20199;-60
2023/02/07 07:21:12;;;;;;;13.90;8.80;;;8.20;42.00;;;;;;5043841;28;20674;-60
2023/02/07 07:23:37;;;;;;;13.53;9.10;;;8.40;41.00;;;;;;5031312;28;20796;-60
2023/02/07 07:26:03;;;;;;;9.63;8.40;;;8.50;40.40;;;;;;5045735;28;20443;-60
2023/02/07 07:28:29;;;;;;;14.80;8.50;;;8.60;40.30;;;;;;5042176;28;20307;-60
2023/02/07 07:31:01;;;;;;;11.20;8.50;;;8.80;39.90;;;;;;5020276;28;20974;-60
2023/02/07 07:33:27;;;;;;;11.60;10.07;;;8.90;39.60;;;;;;5042056;28;20934;-60
2023/02/07 07:36:00;;;;;;;10.17;9.13;;;9.10;40.20;;;;;;5037721;28;20449;-60
2023/02/07 07:38:26;;;;;;;11.40;8.90;;;9.30;39.70;;;;;;5040721;28;20279;-60
2023/02/07 07:40:52;;;;;;;10.50;8.37;;;9.50;39.40;;;;;;5041815;28;20475;-60
2023/02/07 07:43:18;;;;;;;12.10;8.07;;;9.60;38.00;;;;;;5036867;28;20507;-57
2023/02/07 07:45:44;;;;;;;10.47;8.60;;;9.60;37.60;;;;;;5042817;28;20193;-58
2023/02/07 07:48:10;;;;;;;11.33;8.20;;;9.50;37.50;;;;;;5036199;28;20192;-58
2023/02/07 07:50:35;;;;;;;9.77;8.77;;;9.40;37.90;;;;;;5042407;28;20449;-57
2023/02/07 07:53:01;;;;;;;10.90;8.93;;;9.30;38.20;;;;;;5045914;28;20208;-57
2023/02/07 07:55:26;;;;;;;13.97;9.57;;;9.20;38.40;;;;;;5046015;28;20550;-58
2023/02/07 07:57:52;;;;;;;12.20;8.80;;;9.10;38.40;;;;;;5042828;28;20228;-58
2023/02/07 08:00:18;;;;;;;12.27;8.57;;;9.00;38.50;;;;;;5048510;28;20971;-58
2023/02/07 08:02:44;;;;;;;11.10;8.30;;;9.00;38.90;;;;;;5047759;28;20255;-58
2023/02/07 08:05:10;;;;;;;9.20;7.93;;;8.90;39.00;;;;;;5042514;28;20436;-58
2023/02/07 08:07:36;;;;;;;9.13;7.90;;;8.80;38.60;;;;;;5029477;28;20193;-58
2023/02/07 08:10:02;;;;;;;9.17;7.90;;;8.70;38.50;;;;;;5049086;28;20509;-58
2023/02/07 08:12:28;;;;;;;10.37;7.40;;;8.60;38.90;;;;;;5049396;28;20441;-58
2023/02/07 08:14:54;;;;;;;9.50;8.50;;;8.40;39.20;;;;;;5049695;28;20415;-58
2023/02/07 08:17:19;;;;;;;9.97;8.87;;;8.40;39.60;;;;;;5048068;28;20224;-58
2023/02/07 08:19:45;;;;;;;11.60;7.80;;;8.30;40.00;;;;;;5048138;28;20528;-58
2023/02/07 08:22:11;;;;;;;12.93;7.87;;;8.20;40.30;;;;;;5049335;28;20192;-58
2023/02/07 08:24:36;;;;;;;10.97;7.80;;;8.20;40.60;;;;;;5035970;28;20189;-58
2023/02/07 08:27:03;;;;;;;13.80;9.87;;;8.20;41.00;;;;;;5036342;28;20523;-58
2023/02/07 08:29:28;;;;;;;10.50;8.80;;;8.00;41.50;;;;;;5029879;28;20208;-58
2023/02/07 08:31:54;;;;;;;12.40;9.00;;;7.90;41.50;;;;;;5036474;28;20451;-58
2023/02/07 08:34:24;;;;;;;12.37;10.43;;;7.80;42.10;;;;;;5033933;28;20243;-58
2023/02/07 08:36:50;;;;;;;11.13;8.90;;;7.70;42.50;;;;;;5033500;28;20220;-58
2023/02/07 08:39:16;;;;;;;10.47;7.80;;;7.60;43.30;;;;;;5033216;28;20434;-58
2023/02/07 08:41:41;;;;;;;9.17;8.20;;;7.50;43.30;;;;;;5035028;28;20479;-58
2023/02/07 08:44:07;;;;;;;11.73;8.60;;;7.30;43.50;;;;;;5032054;28;20247;-58
2023/02/07 08:46:33;;;;;;;11.13;8.93;;;7.30;43.70;;;;;;5033488;28;20564;-58
2023/02/07 08:48:58;;;;;;;11.50;8.87;;;7.20;43.90;;;;;;5033118;28;20189;-58
2023/02/07 08:51:24;;;;;;;10.83;8.80;;;7.20;43.80;;;;;;5033401;28;20197;-58
2023/02/07 08:53:49;;;;;;;11.43;9.03;;;7.20;43.60;;;;;;5041728;28;20323;-58
2023/02/07 08:56:15;;;;;;;9.10;8.20;;;7.20;43.80;;;;;;5046145;28;20695;-58
2023/02/07 08:58:40;;;;;;;10.00;7.53;;;7.10;43.50;;;;;;5032948;28;20236;-58
2023/02/07 09:01:09;;;;;;;9.63;7.77;;;7.10;43.40;;;;;;5032910;28;20312;-58
2023/02/07 09:03:36;;;;;;;11.60;7.40;;;7.10;43.00;;;;;;5047759;28;20193;-58
2023/02/07 09:06:01;;;;;;;11.40;7.63;;;7.10;42.60;;;;;;5040633;28;20435;-58
2023/02/07 09:08:27;;;;;;;11.17;8.50;;;7.10;42.40;;;;;;5032747;28;20442;-57
2023/02/07 09:10:53;;;;;;;9.97;8.13;;;6.90;42.70;;;;;;5031478;28;20605;-58
2023/02/07 09:13:18;;;;;;;12.10;8.67;;;6.90;42.30;;;;;;5033196;28;20189;-58
2023/02/07 09:15:44;;;;;;;12.57;8.50;;;7.00;42.90;;;;;;5033137;28;20197;-58
2023/02/07 09:18:09;;;;;;;8.40;7.33;;;7.10;43.10;;;;;;5045151;28;20221;-58
2023/02/07 09:20:35;;;;;;;10.07;8.17;;;7.10;42.90;;;;;;5047890;28;20556;-58
2023/02/07 09:25:52;;;;;;;10.50;8.93;;;7.10;43.20;;;;;;5045757;28;20462;-58
2023/02/07 09:28:19;;;;;;;11.77;9.27;;;7.10;43.00;;;;;;5049989;28;20454;-58
2023/02/07 09:30:46;;;;;;;10.77;8.80;;;7.30;43.00;;;;;;5049139;28;20444;-58
2023/02/07 09:33:13;;;;;;;9.47;8.23;;;7.30;42.70;;;;;;5045020;28;20454;-58
2023/02/07 09:35:45;;;;;;;10.50;8.77;;;7.20;42.80;;;;;;5044557;28;20452;-57
2023/02/07 09:38:20;;;;;;;10.07;7.27;;;6.80;42.40;;;;;;5042650;28;21308;-58
2023/02/07 09:40:51;;;;;;;11.90;8.30;;;6.80;43.00;;;;;;5046290;28;20933;-58
2023/02/07 09:43:49;;;;;;;9.47;8.37;;;7.00;43.40;;;;;;5037113;28;20439;-56
2023/02/07 09:46:23;;;;;;;9.87;8.00;;;7.20;43.40;;;;;;5043449;28;20800;-56
2023/02/07 09:49:15;;;;;;;12.73;8.83;;;7.70;42.90;;;;;;5039054;28;20443;-56
2023/02/07 09:51:42;;;;;;;11.57;8.53;;;8.20;42.30;;;;;;5027458;28;20454;-54
2023/02/07 09:54:22;;;;;;;10.87;8.37;;;8.30;41.20;;;;;;5032667;28;20489;-55
2023/02/07 09:56:51;;;;;;;9.77;8.70;;;8.50;40.70;;;;;;5044232;28;20474;-55
2023/02/07 09:59:22;;;;;;;10.27;8.07;;;8.20;40.10;;;;;;5041854;28;20431;-56
2023/02/07 10:01:52;;;;;;;9.33;8.40;;;8.30;40.80;;;;;;5041859;28;20505;-54
2023/02/07 10:04:19;;;;;;;10.53;9.40;;;8.50;40.90;;;;;;5049877;28;20491;-53
2023/02/07 10:06:51;;;;;;;11.60;8.87;;;8.70;40.50;;;;;;5042746;28;20855;-56
2023/02/07 10:09:22;;;;;;;10.50;9.07;;;8.80;40.10;;;;;;5044112;28;20443;-52
2023/02/07 10:11:59;;;;;;;12.37;9.43;;;9.00;39.80;;;;;;5043450;28;20724;-56
2023/02/07 10:14:38;;;;;;;10.73;7.87;;;9.10;39.30;;;;;;5046926;28;20447;-57
2023/02/07 10:17:38;;;;;;;11.23;8.93;;;9.30;39.30;;;;;;5047892;28;20486;-53
2023/02/07 10:20:35;;;;;;;14.27;9.20;;;9.20;39.10;;;;;;5013870;28;20462;-57
2023/02/07 10:23:18;;;;;;;11.30;9.13;;;9.30;40.30;;;;;;5048558;28;20451;-51
2023/02/07 10:26:16;;;;;;;10.53;9.17;;;9.70;40.30;;;;;;5049216;28;20506;-57
2023/02/07 10:28:53;;;;;;;12.00;8.83;;;9.90;39.10;;;;;;5052257;28;20809;-54
2023/02/07 10:31:21;;;;;;;10.87;9.00;;;10.20;39.20;;;;;;5030941;28;20994;-58
2023/02/07 10:33:52;;;;;;;12.00;9.50;;;10.40;37.70;;;;;;5040823;28;20574;-56
2023/02/07 10:36:18;;;;;;;10.50;8.03;;;10.60;36.90;;;;;;5045388;28;20461;-57
2023/02/07 10:39:16;;;;;;;9.67;8.67;;;10.30;35.80;;;;;;5044192;28;20447;-56
2023/02/07 10:41:42;;;;;;;9.63;8.53;;;10.10;36.80;;;;;;5030539;28;20208;-55
2023/02/07 10:44:18;;;;;;;11.67;8.93;;;10.20;36.90;;;;;;5039581;28;20470;-53
2023/02/07 10:46:49;;;;;;;9.37;8.30;;;10.30;37.10;;;;;;5042381;28;21008;-56
2023/02/07 10:49:30;;;;;;;10.20;8.00;;;10.50;37.90;;;;;;5042800;28;20805;-54
2023/02/07 10:52:13;;;;;;;10.03;8.30;;;10.60;37.30;;;;;;5040372;28;20455;-55
2023/02/07 10:54:54;;;;;;;9.80;8.83;;;10.90;36.90;;;;;;5037670;28;20441;-54
2023/02/07 10:57:20;;;;;;;8.20;7.10;;;11.10;36.40;;;;;;5046578;28;20579;-53
2023/02/07 10:59:47;;;;;;;10.57;9.47;;;11.10;34.60;;;;;;5042823;28;20440;-52
2023/02/07 11:02:37;;;;;;;12.43;8.63;;;11.30;34.20;;;;;;5042258;28;20470;-51
2023/02/07 11:05:14;;;;;;;13.80;9.63;;;11.50;35.30;;;;;;5036267;28;20989;-52
2023/02/07 11:07:40;;;;;;;14.10;9.23;;;11.60;35.90;;;;;;5032337;28;20933;-52
2023/02/07 11:10:22;;;;;;;10.30;8.43;;;11.60;36.30;;;;;;5037491;28;20454;-51
2023/02/07 11:12:56;;;;;;;11.73;10.53;;;11.80;37.00;;;;;;5035885;28;20518;-54
2023/02/07 11:15:57;;;;;;;10.23;8.93;;;12.00;36.40;;;;;;5041050;28;20451;-54
2023/02/07 11:18:54;;;;;;;9.83;8.30;;;12.10;35.30;;;;;;5034136;28;20494;-51
2023/02/07 11:21:24;;;;;;;9.53;8.53;;;12.20;36.00;;;;;;5049772;28;20461;-51
2023/02/07 11:23:52;;;;;;;10.57;8.87;;;12.50;35.80;;;;;;5036175;28;20963;-51
2023/02/07 11:26:20;;;;;;;9.80;8.80;;;12.60;34.50;;;;;;5041730;28;20811;-51
2023/02/07 11:28:49;;;;;;;9.97;8.97;;;12.70;34.70;;;;;;5046875;28;20451;-50
2023/02/07 11:31:17;;;;;;;12.17;10.30;;;12.70;35.10;;;;;;5045511;28;20459;-50
2023/02/07 11:33:43;;;;;;;10.40;9.40;;;12.80;34.90;;;;;;5041866;28;21018;-51
2023/02/07 11:36:17;;;;;;;11.23;9.60;;;12.80;35.20;;;;;;5040188;28;20435;-51
2023/02/07 11:38:49;;;;;;;11.87;9.27;;;12.90;34.30;;;;;;5034044;28;20560;-52
2023/02/07 11:41:33;;;;;;;10.53;9.23;;;13.00;34.70;;;;;;5045476;28;20450;-54
2023/02/07 11:44:02;;;;;;;10.30;9.30;;;13.00;35.00;;;;;;5032184;28;20538;-54
2023/02/07 11:46:38;;;;;;;10.47;8.60;;;13.10;34.30;;;;;;5049277;28;20443;-54
2023/02/07 11:49:08;;;;;;;10.07;9.07;;;13.10;33.20;;;;;;5048841;28;21203;-54
2023/02/07 11:51:34;;;;;;;9.33;8.23;;;13.10;33.30;;;;;;5038644;28;20439;-53
2023/02/07 11:54:04;;;;;;;9.30;8.27;;;13.10;33.30;;;;;;5047750;28;20545;-53
2023/02/07 11:56:32;;;;;;;9.30;8.40;;;13.10;32.70;;;;;;5043828;28;20457;-51
2023/02/07 11:58:58;;;;;;;11.20;9.30;;;13.00;33.00;;;;;;5047896;28;20447;-53
2023/02/07 12:01:29;;;;;;;9.80;8.90;;;13.00;33.40;;;;;;5041506;28;20475;-54
2023/02/07 12:04:17;;;;;;;10.00;8.23;;;13.00;33.40;;;;;;5043226;28;20500;-54
2023/02/07 12:06:48;;;;;;;10.03;7.90;;;13.10;32.50;;;;;;5046319;28;21197;-51
2023/02/07 12:09:49;;;;;;;10.30;8.70;;;12.90;32.80;;;;;;5047665;28;21396;-52
2023/02/07 12:12:32;;;;;;;8.87;7.10;;;12.80;32.90;;;;;;5043079;28;20444;-51
2023/02/07 12:15:03;;;;;;;10.00;8.50;;;12.50;33.20;;;;;;5044233;28;20463;-54
2023/02/07 12:17:56;;;;;;;8.53;7.73;;;12.50;32.70;;;;;;5047599;28;20594;-53
2023/02/07 12:20:34;;;;;;;9.53;7.53;;;12.80;32.50;;;;;;5040855;28;20535;-51
2023/02/07 12:23:21;;;;;;;7.90;7.20;;;12.90;32.30;;;;;;5050923;28;20454;-54
2023/02/07 12:26:04;;;;;;;7.63;6.93;;;12.90;31.80;;;;;;5047153;28;20882;-53
2023/02/07 12:28:50;;;;;;;9.73;8.23;;;12.50;30.40;;;;;;5049375;28;20438;-54
2023/02/07 12:31:24;;;;;;;8.43;7.50;;;12.30;32.00;;;;;;5053466;28;20427;-51
2023/02/07 12:34:07;;;;;;;7.47;6.67;;;12.40;32.10;;;;;;5053263;28;20437;-54
2023/02/07 12:36:43;;;;;;;10.30;7.63;;;12.40;32.60;;;;;;5048667;28;20438;-54
2023/02/07 12:39:32;;;;;;;8.77;7.83;;;12.50;32.90;;;;;;5044754;28;20878;-54
2023/02/07 12:42:22;;;;;;;8.80;7.90;;;12.80;33.50;;;;;;5045588;28;20472;-54
2023/02/07 12:44:57;;;;;;;7.70;6.90;;;13.10;32.80;;;;;;5044461;28;20516;-51
2023/02/07 12:47:51;;;;;;;7.43;6.73;;;13.30;31.00;;;;;;5046198;28;20474;-53
2023/02/07 12:50:44;;;;;;;7.70;6.60;;;12.20;29.90;;;;;;5049346;28;20537;-51
2023/02/07 12:53:44;;;;;;;6.47;5.87;;;12.10;29.20;;;;;;5050582;28;20439;-54
2023/02/07 12:56:36;;;;;;;7.50;6.63;;;12.10;30.00;;;;;;5045855;28;21008;-54
2023/02/07 12:59:29;;;;;;;9.20;6.70;;;12.50;30.40;;;;;;5020629;28;20470;-54
2023/02/07 13:02:14;;;;;;;6.83;6.13;;;11.60;29.80;;;;;;5043758;28;20483;-54
2023/02/07 13:04:47;;;;;;;6.50;5.80;;;11.70;30.20;;;;;;5039696;28;20823;-55
2023/02/07 13:07:36;;;;;;;7.23;6.00;;;11.90;30.40;;;;;;5046403;28;20446;-53